This is the latest recevied weather packets stored in our database for station/object KK7KHO. If no packets are shown the sender has not sent any weather packets the latest 10 day(s).
| Time | Temp. | Humidity | Pressure | Rain* | Wind** | Luminosity | Snow |
|---|---|---|---|---|---|---|---|
| 1777905674 | 13.89° C | 84% | 1009.4 hPa | 0 mm | - | 130 W/m² | - |
| 1777905370 | 13.89° C | 84% | 1009.6 hPa | 0 mm | - | 121 W/m² | - |
| 1777905068 | 15° C | 81% | 1009.4 hPa | 0 mm | - | 111 W/m² | - |
| 1777904765 | 13.89° C | 82% | 1009.3 hPa | 0 mm | - | 101 W/m² | - |
| 1777904462 | 13.33° C | 84% | 1009.4 hPa | 0 mm | - | 88 W/m² | - |
| 1777904159 | 12.22° C | 87% | 1009.2 hPa | 0 mm | - | 78 W/m² | - |
| 1777903856 | 12.22° C | 86% | 1009.2 hPa | 0 mm | - | 66 W/m² | - |
| 1777903552 | 11.11° C | 90% | 1009.3 hPa | 0 mm | - | 62 W/m² | - |
| 1777903248 | 11.11° C | 91% | 1009.2 hPa | 0 mm | - | 57 W/m² | - |
| 1777902945 | 11.11° C | 91% | 1009.3 hPa | 0 mm | - | 36 W/m² | - |
| 1777902642 | 11.11° C | 89% | 1009 hPa | 0 mm | - | 33 W/m² | - |
| 1777902339 | 11.67° C | 90% | 1009 hPa | 0 mm | - | 31 W/m² | - |
| 1777902035 | 12.22° C | 88% | 1008.9 hPa | 0 mm | - | 34 W/m² | - |
| 1777901734 | 11.67° C | 90% | 1009 hPa | 0 mm | - | 31 W/m² | - |
| 1777901426 | 11.11° C | 91% | 1009.1 hPa | 0 mm | - | 27 W/m² | - |
| 1777901123 | 11.11° C | 91% | 1009 hPa | 0 mm | - | 24 W/m² | - |
| 1777900821 | 11.11° C | 92% | 1008.9 hPa | 0 mm | - | 20 W/m² | - |
| 1777900518 | 11.11° C | 92% | 1008.9 hPa | 0 mm | - | 17 W/m² | - |
| 1777900215 | 11.11° C | 92% | 1008.6 hPa | 0 mm | - | 13 W/m² | - |
| 1777899911 | 11.11° C | 91% | 1008.6 hPa | 0 mm | - | 10 W/m² | - |
| 1777899608 | 11.11° C | 92% | 1008.5 hPa | 0 mm | - | 7 W/m² | - |
| 1777899305 | 10.56° C | 91% | 1008.7 hPa | 0 mm | - | 5 W/m² | - |
| 1777899003 | 11.11° C | 90% | 1008.7 hPa | 0 mm | - | 3 W/m² | - |
| 1777898700 | 11.11° C | 89% | 1008.8 hPa | 0 mm | - | 2 W/m² | - |
| 1777898397 | 11.67° C | 90% | 1008.6 hPa | 0 mm | - | 1 W/m² | - |
* Rain latest hour (hover to see other rain measurements)
** Current wind speed in m/s (hover to see current wind gust speed)